sensor_id;sensor_type;location;lat;lon;timestamp;pressure;altitude;pressure_sealevel;temperature;humidity
79230;BME280;68663;49.122;17.544;2023-04-25T00:00:56;98440.75;;;24.27;46.66
79230;BME280;68663;49.122;17.544;2023-04-25T00:03:22;98437.56;;;24.25;46.51
79230;BME280;68663;49.122;17.544;2023-04-25T00:05:50;98437.22;;;24.23;46.79
79230;BME280;68663;49.122;17.544;2023-04-25T00:08:17;98438.47;;;24.22;46.82
79230;BME280;68663;49.122;17.544;2023-04-25T00:10:42;98436.09;;;24.21;46.56
79230;BME280;68663;49.122;17.544;2023-04-25T00:13:07;98430.91;;;24.19;46.86
79230;BME280;68663;49.122;17.544;2023-04-25T00:15:33;98444.22;;;24.19;46.87
79230;BME280;68663;49.122;17.544;2023-04-25T00:18:01;98435.41;;;24.17;46.82
79230;BME280;68663;49.122;17.544;2023-04-25T00:20:26;98447.50;;;24.17;46.90
79230;BME280;68663;49.122;17.544;2023-04-25T00:22:51;98441.84;;;24.17;46.73
79230;BME280;68663;49.122;17.544;2023-04-25T00:25:20;98450.78;;;24.15;46.92
79230;BME280;68663;49.122;17.544;2023-04-25T00:27:46;98440.28;;;24.16;46.92
79230;BME280;68663;49.122;17.544;2023-04-25T00:30:12;98443.09;;;24.16;46.83
79230;BME280;68663;49.122;17.544;2023-04-25T00:32:37;98437.91;;;24.14;46.93
79230;BME280;68663;49.122;17.544;2023-04-25T00:35:03;98435.88;;;24.15;46.79
79230;BME280;68663;49.122;17.544;2023-04-25T00:37:29;98437.13;;;24.14;46.83
79230;BME280;68663;49.122;17.544;2023-04-25T00:39:54;98440.84;;;24.11;46.90
79230;BME280;68663;49.122;17.544;2023-04-25T00:42:21;98439.59;;;24.12;46.83
79230;BME280;68663;49.122;17.544;2023-04-25T00:44:46;98441.63;;;24.11;46.83
79230;BME280;68663;49.122;17.544;2023-04-25T00:47:13;98437.22;;;24.10;46.99
79230;BME280;68663;49.122;17.544;2023-04-25T00:49:38;98439.72;;;24.08;47.04
79230;BME280;68663;49.122;17.544;2023-04-25T00:52:04;98444.56;;;24.08;46.90
79230;BME280;68663;49.122;17.544;2023-04-25T00:54:29;98443.09;;;24.03;46.98
79230;BME280;68663;49.122;17.544;2023-04-25T00:56:55;98440.41;;;24.00;47.15
79230;BME280;68663;49.122;17.544;2023-04-25T00:59:21;98441.63;;;23.99;47.26
79230;BME280;68663;49.122;17.544;2023-04-25T01:01:46;98437.34;;;23.94;47.25
79230;BME280;68663;49.122;17.544;2023-04-25T01:04:12;98436.00;;;23.99;47.22
79230;BME280;68663;49.122;17.544;2023-04-25T01:06:38;98436.66;;;24.03;47.25
79230;BME280;68663;49.122;17.544;2023-04-25T01:09:04;98443.09;;;24.03;47.19
79230;BME280;68663;49.122;17.544;2023-04-25T01:11:30;98439.94;;;24.01;47.18
79230;BME280;68663;49.122;17.544;2023-04-25T01:13:55;98441.97;;;24.01;47.07
79230;BME280;68663;49.122;17.544;2023-04-25T01:16:21;98438.81;;;23.99;47.18
79230;BME280;68663;49.122;17.544;2023-04-25T01:18:49;98445.72;;;23.98;47.19
79230;BME280;68663;49.122;17.544;2023-04-25T01:21:15;98438.47;;;23.97;47.18
79230;BME280;68663;49.122;17.544;2023-04-25T01:23:42;98443.78;;;23.95;47.29
79230;BME280;68663;49.122;17.544;2023-04-25T01:26:09;98443.44;;;23.93;47.20
79230;BME280;68663;49.122;17.544;2023-04-25T01:28:35;98444.91;;;23.97;47.34
79230;BME280;68663;49.122;17.544;2023-04-25T01:31:01;98446.50;;;23.98;47.37
79230;BME280;68663;49.122;17.544;2023-04-25T01:33:27;98447.28;;;23.99;47.18
79230;BME280;68663;49.122;17.544;2023-04-25T01:35:52;98448.97;;;23.96;47.21
79230;BME280;68663;49.122;17.544;2023-04-25T01:38:18;98446.59;;;23.95;47.31
79230;BME280;68663;49.122;17.544;2023-04-25T01:40:45;98447.50;;;23.92;47.18
79230;BME280;68663;49.122;17.544;2023-04-25T01:43:10;98445.13;;;23.90;47.42
79230;BME280;68663;49.122;17.544;2023-04-25T01:45:43;98441.19;;;23.88;47.41
79230;BME280;68663;49.122;17.544;2023-04-25T01:48:10;98442.53;;;23.96;47.28
79230;BME280;68663;49.122;17.544;2023-04-25T01:50:37;98440.97;;;23.95;47.23
79230;BME280;68663;49.122;17.544;2023-04-25T01:53:04;98444.25;;;23.93;47.13
79230;BME280;68663;49.122;17.544;2023-04-25T01:55:29;98446.72;;;23.91;47.34
79230;BME280;68663;49.122;17.544;2023-04-25T01:57:55;98446.38;;;23.89;47.25
79230;BME280;68663;49.122;17.544;2023-04-25T02:00:21;98450.91;;;23.87;47.37
79230;BME280;68663;49.122;17.544;2023-04-25T02:02:46;98445.13;;;23.90;47.50
79230;BME280;68663;49.122;17.544;2023-04-25T02:05:12;98447.06;;;23.93;47.32
79230;BME280;68663;49.122;17.544;2023-04-25T02:07:37;98454.75;;;23.93;47.09
79230;BME280;68663;49.122;17.544;2023-04-25T02:10:03;98450.69;;;23.94;47.26
79230;BME280;68663;49.122;17.544;2023-04-25T02:12:28;98449.53;;;23.91;47.19
79230;BME280;68663;49.122;17.544;2023-04-25T02:14:54;98452.94;;;23.86;47.26
79230;BME280;68663;49.122;17.544;2023-04-25T02:17:20;98447.72;;;23.85;47.44
79230;BME280;68663;49.122;17.544;2023-04-25T02:19:47;98449.44;;;23.82;47.37
79230;BME280;68663;49.122;17.544;2023-04-25T02:22:12;98436.78;;;23.87;47.36
79230;BME280;68663;49.122;17.544;2023-04-25T02:24:38;98434.75;;;23.87;47.22
79230;BME280;68663;49.122;17.544;2023-04-25T02:27:04;98428.31;;;23.87;47.23
79230;BME280;68663;49.122;17.544;2023-04-25T02:29:29;98430.00;;;23.84;47.08
79230;BME280;68663;49.122;17.544;2023-04-25T02:31:55;98431.69;;;23.81;47.27
79230;BME280;68663;49.122;17.544;2023-04-25T02:34:20;98426.97;;;23.78;47.42
79230;BME280;68663;49.122;17.544;2023-04-25T02:36:46;98430.91;;;23.81;47.54
79230;BME280;68663;49.122;17.544;2023-04-25T02:39:11;98427.97;;;23.85;47.19
79230;BME280;68663;49.122;17.544;2023-04-25T02:41:37;98428.44;;;23.83;47.32
79230;BME280;68663;49.122;17.544;2023-04-25T02:44:02;98424.81;;;23.82;47.40
79230;BME280;68663;49.122;17.544;2023-04-25T02:46:27;98422.44;;;23.81;47.50
79230;BME280;68663;49.122;17.544;2023-04-25T02:48:53;98430.13;;;23.80;47.61
79230;BME280;68663;49.122;17.544;2023-04-25T02:51:18;98427.97;;;23.85;47.28
79230;BME280;68663;49.122;17.544;2023-04-25T02:53:44;98426.72;;;23.86;47.27
79230;BME280;68663;49.122;17.544;2023-04-25T02:56:09;98427.97;;;23.85;47.36
79230;BME280;68663;49.122;17.544;2023-04-25T02:58:34;98429.22;;;23.83;47.58
79230;BME280;68663;49.122;17.544;2023-04-25T03:01:00;98423.69;;;23.80;47.34
79230;BME280;68663;49.122;17.544;2023-04-25T03:03:25;98422.91;;;23.79;47.38
79230;BME280;68663;49.122;17.544;2023-04-25T03:05:51;98422.56;;;23.77;47.51
79230;BME280;68663;49.122;17.544;2023-04-25T03:08:17;98428.66;;;23.76;47.54
79230;BME280;68663;49.122;17.544;2023-04-25T03:10:43;98422.00;;;23.82;47.40
79230;BME280;68663;49.122;17.544;2023-04-25T03:13:09;98423.91;;;23.86;47.21
79230;BME280;68663;49.122;17.544;2023-04-25T03:15:35;98422.31;;;23.85;47.14
79230;BME280;68663;49.122;17.544;2023-04-25T03:18:01;98423.56;;;23.83;47.32
79230;BME280;68663;49.122;17.544;2023-04-25T03:20:26;98421.19;;;23.82;47.22
79230;BME280;68663;49.122;17.544;2023-04-25T03:22:52;98422.91;;;23.79;47.33
79230;BME280;68663;49.122;17.544;2023-04-25T03:25:17;98424.13;;;23.78;47.24
79230;BME280;68663;49.122;17.544;2023-04-25T03:27:43;98424.59;;;23.77;47.54
79230;BME280;68663;49.122;17.544;2023-04-25T03:30:08;98427.06;;;23.75;47.50
79230;BME280;68663;49.122;17.544;2023-04-25T03:32:34;98428.75;;;23.72;47.57
79230;BME280;68663;49.122;17.544;2023-04-25T03:35:00;98427.84;;;23.75;47.52
79230;BME280;68663;49.122;17.544;2023-04-25T03:37:25;98431.69;;;23.81;47.30
79230;BME280;68663;49.122;17.544;2023-04-25T03:39:51;98428.88;;;23.81;47.20
79230;BME280;68663;49.122;17.544;2023-04-25T03:42:16;98428.53;;;23.79;47.48
79230;BME280;68663;49.122;17.544;2023-04-25T03:44:42;98425.38;;;23.77;47.37
79230;BME280;68663;49.122;17.544;2023-04-25T03:47:07;98426.28;;;23.74;47.47
79230;BME280;68663;49.122;17.544;2023-04-25T03:49:33;98428.75;;;23.72;47.53
79230;BME280;68663;49.122;17.544;2023-04-25T03:51:59;98439.03;;;23.79;47.44
79230;BME280;68663;49.122;17.544;2023-04-25T03:54:25;98429.78;;;23.78;47.43
79230;BME280;68663;49.122;17.544;2023-04-25T03:56:50;98442.31;;;23.77;47.26
79230;BME280;68663;49.122;17.544;2023-04-25T03:59:16;98438.34;;;23.75;47.39
79230;BME280;68663;49.122;17.544;2023-04-25T04:01:41;98435.97;;;23.73;47.37
79230;BME280;68663;49.122;17.544;2023-04-25T04:04:06;98439.72;;;23.83;47.40
79230;BME280;68663;49.122;17.544;2023-04-25T04:06:32;98445.81;;;23.94;47.25
79230;BME280;68663;49.122;17.544;2023-04-25T04:08:58;98441.41;;;24.06;46.87
79230;BME280;68663;49.122;17.544;2023-04-25T04:11:23;98444.22;;;24.19;46.45
79230;BME280;68663;49.122;17.544;2023-04-25T04:13:51;98440.31;;;24.29;46.01
79230;BME280;68663;49.122;17.544;2023-04-25T04:16:17;98446.75;;;24.29;47.24
79230;BME280;68663;49.122;17.544;2023-04-25T04:18:45;98445.53;;;24.30;46.94
79230;BME280;68663;49.122;17.544;2023-04-25T04:21:10;98441.63;;;24.24;47.16
79230;BME280;68663;49.122;17.544;2023-04-25T04:23:36;98452.13;;;24.24;47.01
79230;BME280;68663;49.122;17.544;2023-04-25T04:26:01;98451.34;;;24.23;47.14
79230;BME280;68663;49.122;17.544;2023-04-25T04:28:26;98448.19;;;24.21;47.03
79230;BME280;68663;49.122;17.544;2023-04-25T04:30:53;98452.94;;;24.24;46.93
79230;BME280;68663;49.122;17.544;2023-04-25T04:33:18;98458.28;;;24.35;46.54
79230;BME280;68663;49.122;17.544;2023-04-25T04:35:45;98452.84;;;24.40;46.39
79230;BME280;68663;49.122;17.544;2023-04-25T04:38:12;98453.88;;;24.34;46.45
79230;BME280;68663;49.122;17.544;2023-04-25T04:40:40;98456.25;;;24.35;46.59
79230;BME280;68663;49.122;17.544;2023-04-25T04:43:06;98461.91;;;24.35;46.90
79230;BME280;68663;49.122;17.544;2023-04-25T04:45:31;98457.50;;;24.34;47.01
79230;BME280;68663;49.122;17.544;2023-04-25T04:47:56;98457.50;;;24.34;47.30
79230;BME280;68663;49.122;17.544;2023-04-25T04:50:22;98461.22;;;24.44;47.31
79230;BME280;68663;49.122;17.544;2023-04-25T04:52:47;98468.78;;;24.47;47.23
79230;BME280;68663;49.122;17.544;2023-04-25T04:55:13;98460.41;;;24.43;47.12
79230;BME280;68663;49.122;17.544;2023-04-25T04:57:38;98468.69;;;24.38;47.38
79230;BME280;68663;49.122;17.544;2023-04-25T05:00:05;98467.22;;;24.33;47.41
79230;BME280;68663;49.122;17.544;2023-04-25T05:02:35;98471.41;;;24.29;47.53
79230;BME280;68663;49.122;17.544;2023-04-25T05:05:01;98474.72;;;24.24;47.57
79230;BME280;68663;49.122;17.544;2023-04-25T05:07:26;98471.22;;;24.20;47.76
79230;BME280;68663;49.122;17.544;2023-04-25T05:09:52;98468.53;;;24.16;47.69
79230;BME280;68663;49.122;17.544;2023-04-25T05:12:17;98467.84;;;24.12;47.84
79230;BME280;68663;49.122;17.544;2023-04-25T05:14:42;98464.69;;;24.10;47.85
79230;BME280;68663;49.122;17.544;2023-04-25T05:17:08;98474.41;;;24.09;47.84
79230;BME280;68663;49.122;17.544;2023-04-25T05:19:34;98471.69;;;24.05;48.01
79230;BME280;68663;49.122;17.544;2023-04-25T05:21:59;98479.38;;;24.05;47.99
79230;BME280;68663;49.122;17.544;2023-04-25T05:24:25;98468.06;;;24.05;48.22
79230;BME280;68663;49.122;17.544;2023-04-25T05:26:50;98476.19;;;24.03;48.17
79230;BME280;68663;49.122;17.544;2023-04-25T05:29:16;98472.13;;;24.04;47.92
79230;BME280;68663;49.122;17.544;2023-04-25T05:31:41;98476.19;;;24.03;48.13
79230;BME280;68663;49.122;17.544;2023-04-25T05:34:07;98483.53;;;24.00;48.11
79230;BME280;68663;49.122;17.544;2023-04-25T05:36:32;98477.09;;;24.00;48.04
79230;BME280;68663;49.122;17.544;2023-04-25T05:38:58;98486.81;;;23.99;48.07
79230;BME280;68663;49.122;17.544;2023-04-25T05:41:23;98483.19;;;23.98;47.86
79230;BME280;68663;49.122;17.544;2023-04-25T05:43:48;98481.16;;;23.99;47.86
79230;BME280;68663;49.122;17.544;2023-04-25T05:46:14;98484.44;;;23.97;48.03
79230;BME280;68663;49.122;17.544;2023-04-25T05:48:42;98488.50;;;23.96;48.01
79230;BME280;68663;49.122;17.544;2023-04-25T05:51:08;98488.50;;;23.96;47.94
79230;BME280;68663;49.122;17.544;2023-04-25T05:53:34;98484.22;;;23.92;47.87
79230;BME280;68663;49.122;17.544;2023-04-25T05:55:59;98486.34;;;23.88;48.00
79230;BME280;68663;49.122;17.544;2023-04-25T05:58:25;98487.94;;;23.89;48.22
79230;BME280;68663;49.122;17.544;2023-04-25T06:00:50;98490.06;;;23.85;48.18
79230;BME280;68663;49.122;17.544;2023-04-25T06:03:16;98490.97;;;23.81;48.23
79230;BME280;68663;49.122;17.544;2023-04-25T06:05:42;98492.22;;;23.80;48.48
79230;BME280;68663;49.122;17.544;2023-04-25T06:08:08;98502.72;;;23.80;48.41
79230;BME280;68663;49.122;17.544;2023-04-25T06:10:35;98490.41;;;23.87;48.42
79230;BME280;68663;49.122;17.544;2023-04-25T06:13:00;98488.84;;;23.86;48.40
79230;BME280;68663;49.122;17.544;2023-04-25T06:15:26;98492.91;;;23.85;48.31
79230;BME280;68663;49.122;17.544;2023-04-25T06:17:51;98491.31;;;23.83;48.50
79230;BME280;68663;49.122;17.544;2023-04-25T06:20:16;98497.09;;;23.93;48.39
79230;BME280;68663;49.122;17.544;2023-04-25T06:22:42;98500.59;;;24.09;48.28
79230;BME280;68663;49.122;17.544;2023-04-25T06:25:07;98494.97;;;24.22;48.36
79230;BME280;68663;49.122;17.544;2023-04-25T06:27:33;98490.66;;;24.18;48.26
79230;BME280;68663;49.122;17.544;2023-04-25T06:29:59;98489.41;;;24.19;48.45
79230;BME280;68663;49.122;17.544;2023-04-25T06:32:24;98489.41;;;24.19;48.12
79230;BME280;68663;49.122;17.544;2023-04-25T06:34:52;98487.84;;;24.18;48.30
79230;BME280;68663;49.122;17.544;2023-04-25T06:37:19;98482.53;;;24.20;48.01
79230;BME280;68663;49.122;17.544;2023-04-25T06:39:45;98489.13;;;24.29;48.29
79230;BME280;68663;49.122;17.544;2023-04-25T06:42:10;98485.72;;;24.47;47.99
79230;BME280;68663;49.122;17.544;2023-04-25T06:44:36;98491.63;;;24.40;48.09
79230;BME280;68663;49.122;17.544;2023-04-25T06:47:01;98481.50;;;24.26;46.45
79230;BME280;68663;49.122;17.544;2023-04-25T06:49:26;98491.22;;;24.12;40.70
79230;BME280;68663;49.122;17.544;2023-04-25T06:51:52;98478.00;;;23.97;40.78
79230;BME280;68663;49.122;17.544;2023-04-25T06:54:17;98483.09;;;23.89;39.65
79230;BME280;68663;49.122;17.544;2023-04-25T06:56:43;98482.50;;;23.81;39.05
79230;BME280;68663;49.122;17.544;2023-04-25T06:59:08;98482.03;;;23.70;38.72
79230;BME280;68663;49.122;17.544;2023-04-25T07:01:34;98481.25;;;23.70;38.67
79230;BME280;68663;49.122;17.544;2023-04-25T07:04:00;98482.94;;;23.67;38.60
79230;BME280;68663;49.122;17.544;2023-04-25T07:06:25;98478.19;;;23.64;37.97
79230;BME280;68663;49.122;17.544;2023-04-25T07:08:53;98478.28;;;23.61;37.60
79230;BME280;68663;49.122;17.544;2023-04-25T07:11:18;98475.25;;;23.55;37.83
79230;BME280;68663;49.122;17.544;2023-04-25T07:13:43;98473.03;;;23.46;37.51
79230;BME280;68663;49.122;17.544;2023-04-25T07:16:09;98473.50;;;23.45;38.06
79230;BME280;68663;49.122;17.544;2023-04-25T07:18:34;98474.69;;;23.60;38.14
79230;BME280;68663;49.122;17.544;2023-04-25T07:21:00;98469.72;;;23.64;38.52
79230;BME280;68663;49.122;17.544;2023-04-25T07:23:25;98467.59;;;23.68;39.04
79230;BME280;68663;49.122;17.544;2023-04-25T07:25:51;98474.59;;;23.76;39.15
79230;BME280;68663;49.122;17.544;2023-04-25T07:28:16;98462.97;;;23.87;39.56
79230;BME280;68663;49.122;17.544;2023-04-25T07:30:43;98467.72;;;24.03;39.87
79230;BME280;68663;49.122;17.544;2023-04-25T07:33:08;98460.84;;;24.17;40.25
79230;BME280;68663;49.122;17.544;2023-04-25T07:35:34;98460.88;;;24.29;40.47
79230;BME280;68663;49.122;17.544;2023-04-25T07:38:00;98454.66;;;24.34;40.66
79230;BME280;68663;49.122;17.544;2023-04-25T07:40:25;98464.22;;;24.24;41.03
79230;BME280;68663;49.122;17.544;2023-04-25T07:42:51;98456.31;;;24.19;41.36
79230;BME280;68663;49.122;17.544;2023-04-25T07:45:16;98456.31;;;24.19;41.52
79230;BME280;68663;49.122;17.544;2023-04-25T07:47:42;98450.34;;;24.17;41.59
79230;BME280;68663;49.122;17.544;2023-04-25T07:50:07;98449.53;;;24.17;41.91
79230;BME280;68663;49.122;17.544;2023-04-25T07:52:33;98451.34;;;24.23;41.99
79230;BME280;68663;49.122;17.544;2023-04-25T07:54:59;98456.25;;;24.35;41.94
79230;BME280;68663;49.122;17.544;2023-04-25T07:57:24;98462.91;;;24.41;42.15
79230;BME280;68663;49.122;17.544;2023-04-25T07:59:50;98469.59;;;24.35;42.37
79230;BME280;68663;49.122;17.544;2023-04-25T08:02:15;98452.75;;;24.31;42.66
79230;BME280;68663;49.122;17.544;2023-04-25T08:04:40;98452.75;;;24.31;42.71
79230;BME280;68663;49.122;17.544;2023-04-25T08:07:06;98453.53;;;24.32;42.68
79230;BME280;68663;49.122;17.544;2023-04-25T08:09:31;98453.53;;;24.32;42.65
79230;BME280;68663;49.122;17.544;2023-04-25T08:12:01;98453.75;;;24.37;42.91
79230;BME280;68663;49.122;17.544;2023-04-25T08:14:27;98460.41;;;24.43;43.04
79230;BME280;68663;49.122;17.544;2023-04-25T08:16:54;98458.25;;;24.48;43.12
79230;BME280;68663;49.122;17.544;2023-04-25T08:19:19;98458.50;;;24.40;43.14
79230;BME280;68663;49.122;17.544;2023-04-25T08:21:44;98455.78;;;24.37;43.49
79230;BME280;68663;49.122;17.544;2023-04-25T08:24:10;98458.28;;;24.35;43.46
79230;BME280;68663;49.122;17.544;2023-04-25T08:26:35;98464.06;;;24.31;43.68
79230;BME280;68663;49.122;17.544;2023-04-25T09:02:42;98454.97;;;24.62;44.13
79230;BME280;68663;49.122;17.544;2023-04-25T09:05:09;98453.94;;;24.68;44.20
79230;BME280;68663;49.122;17.544;2023-04-25T09:07:37;98464.19;;;24.75;43.92
79230;BME280;68663;49.122;17.544;2023-04-25T09:10:10;98447.44;;;24.81;43.77
79230;BME280;68663;49.122;17.544;2023-04-25T09:12:35;98449.03;;;24.82;43.93
79230;BME280;68663;49.122;17.544;2023-04-25T09:15:09;98448.47;;;24.74;44.00
79230;BME280;68663;49.122;17.544;2023-04-25T09:17:35;98451.31;;;24.74;44.00
79230;BME280;68663;49.122;17.544;2023-04-25T09:20:10;98439.66;;;24.72;44.17
79230;BME280;68663;49.122;17.544;2023-04-25T09:22:39;98450.53;;;24.73;44.14
79230;BME280;68663;49.122;17.544;2023-04-25T09:25:11;98441.91;;;24.77;43.97
79230;BME280;68663;49.122;17.544;2023-04-25T09:27:49;98446.53;;;24.84;44.15
79230;BME280;68663;49.122;17.544;2023-04-25T09:30:16;98440.41;;;24.85;44.28
79230;BME280;68663;49.122;17.544;2023-04-25T09:32:43;98434.22;;;24.77;44.58
79230;BME280;68663;49.122;17.544;2023-04-25T09:35:08;98444.06;;;24.73;44.78
79230;BME280;68663;49.122;17.544;2023-04-25T09:37:34;98434.59;;;24.67;44.86
79230;BME280;68663;49.122;17.544;2023-04-25T09:40:05;98432.88;;;24.69;45.08
79230;BME280;68663;49.122;17.544;2023-04-25T09:42:31;98440.91;;;24.71;45.03
79230;BME280;68663;49.122;17.544;2023-04-25T09:45:00;98438.88;;;24.71;44.98
79230;BME280;68663;49.122;17.544;2023-04-25T09:51:05;98450.16;;;24.84;44.90
79230;BME280;68663;49.122;17.544;2023-04-25T09:53:44;98444.25;;;24.91;44.60
79230;BME280;68663;49.122;17.544;2023-04-25T09:56:12;98438.78;;;24.97;44.57
79230;BME280;68663;49.122;17.544;2023-04-25T09:58:39;98444.69;;;25.02;44.33
79230;BME280;68663;49.122;17.544;2023-04-25T10:01:07;98446.94;;;24.95;44.49
79230;BME280;68663;49.122;17.544;2023-04-25T10:03:34;98438.59;;;24.91;44.71
79230;BME280;68663;49.122;17.544;2023-04-25T10:06:02;98436.66;;;24.88;44.60
79230;BME280;68663;49.122;17.544;2023-04-25T10:08:32;98442.31;;;24.88;44.85
79230;BME280;68663;49.122;17.544;2023-04-25T10:11:06;98436.66;;;24.88;44.84
79230;BME280;68663;49.122;17.544;2023-04-25T10:13:33;98444.25;;;24.91;45.04
79230;BME280;68663;49.122;17.544;2023-04-25T10:16:00;98435.97;;;24.97;44.78
79230;BME280;68663;49.122;17.544;2023-04-25T10:18:27;98435.16;;;24.96;44.84
79230;BME280;68663;49.122;17.544;2023-04-25T10:20:57;98432.25;;;24.87;44.79
79230;BME280;68663;49.122;17.544;2023-04-25T10:23:24;98436.59;;;24.79;43.54
79230;BME280;68663;49.122;17.544;2023-04-25T10:25:51;98425.53;;;24.72;42.42
79230;BME280;68663;49.122;17.544;2023-04-25T10:28:18;98421.03;;;24.62;39.90
79230;BME280;68663;49.122;17.544;2023-04-25T10:31:09;98414.06;;;24.54;38.62
79230;BME280;68663;49.122;17.544;2023-04-25T10:33:39;98423.91;;;24.49;37.64
79230;BME280;68663;49.122;17.544;2023-04-25T10:36:19;98424.03;;;24.45;37.71
79230;BME280;68663;49.122;17.544;2023-04-25T10:38:47;98422.22;;;24.39;37.03
79230;BME280;68663;49.122;17.544;2023-04-25T10:41:13;98419.53;;;24.35;36.74
79230;BME280;68663;49.122;17.544;2023-04-25T10:43:41;98423.25;;;24.32;35.83
79230;BME280;68663;49.122;17.544;2023-04-25T10:46:24;98418.16;;;24.27;33.56
79230;BME280;68663;49.122;17.544;2023-04-25T10:48:55;98407.72;;;24.24;35.18
79230;BME280;68663;49.122;17.544;2023-04-25T10:51:21;98408.75;;;24.18;34.90
79230;BME280;68663;49.122;17.544;2023-04-25T10:56:22;98403.00;;;24.08;33.45
79230;BME280;68663;49.122;17.544;2023-04-25T10:58:50;98403.78;;;24.09;35.44
79230;BME280;68663;49.122;17.544;2023-04-25T11:01:20;98397.13;;;24.03;35.31
79230;BME280;68663;49.122;17.544;2023-04-25T11:03:45;98395.91;;;24.04;35.15
79230;BME280;68663;49.122;17.544;2023-04-25T11:06:29;98394.88;;;23.98;34.56
79230;BME280;68663;49.122;17.544;2023-04-25T11:09:00;98383.59;;;23.98;35.18
79230;BME280;68663;49.122;17.544;2023-04-25T11:11:26;98387.31;;;23.95;32.97
79230;BME280;68663;49.122;17.544;2023-04-25T11:13:53;98378.84;;;23.95;33.56
79230;BME280;68663;49.122;17.544;2023-04-25T11:16:19;98386.06;;;23.96;33.97
79230;BME280;68663;49.122;17.544;2023-04-25T11:18:44;98373.88;;;23.99;34.90
79230;BME280;68663;49.122;17.544;2023-04-25T11:21:11;98379.28;;;24.06;36.02
79230;BME280;68663;49.122;17.544;2023-04-25T11:23:36;98382.44;;;24.08;36.44
79230;BME280;68663;49.122;17.544;2023-04-25T11:26:03;98385.94;;;24.12;36.14
79230;BME280;68663;49.122;17.544;2023-04-25T11:28:29;98388.09;;;24.08;35.77
79230;BME280;68663;49.122;17.544;2023-04-25T11:30:55;98373.66;;;24.06;35.24
79230;BME280;68663;49.122;17.544;2023-04-25T11:33:24;98388.09;;;24.08;37.21
79230;BME280;68663;49.122;17.544;2023-04-25T11:35:53;98382.34;;;24.11;37.58
79230;BME280;68663;49.122;17.544;2023-04-25T11:38:19;98381.88;;;24.13;37.23
79230;BME280;68663;49.122;17.544;2023-04-25T11:40:49;98383.13;;;24.12;36.20
79230;BME280;68663;49.122;17.544;2023-04-25T11:43:15;98388.88;;;24.08;35.01
79230;BME280;68663;49.122;17.544;2023-04-25T11:45:41;98387.19;;;24.11;37.04
79230;BME280;68663;49.122;17.544;2023-04-25T11:48:06;98381.78;;;24.04;36.11
79230;BME280;68663;49.122;17.544;2023-04-25T11:50:32;98381.91;;;24.00;35.49
79230;BME280;68663;49.122;17.544;2023-04-25T11:52:57;98381.09;;;24.00;35.09
79230;BME280;68663;49.122;17.544;2023-04-25T11:55:23;98379.97;;;23.97;33.98
79230;BME280;68663;49.122;17.544;2023-04-25T11:57:49;98376.16;;;23.78;31.46
79230;BME280;68663;49.122;17.544;2023-04-25T12:00:20;98378.84;;;23.82;33.61
79230;BME280;68663;49.122;17.544;2023-04-25T12:02:47;98377.63;;;23.83;32.98
79230;BME280;68663;49.122;17.544;2023-04-25T12:05:14;98378.53;;;23.80;33.96
79230;BME280;68663;49.122;17.544;2023-04-25T12:07:43;98378.97;;;23.78;34.49
79230;BME280;68663;49.122;17.544;2023-04-25T12:10:13;98372.66;;;23.87;34.78
79230;BME280;68663;49.122;17.544;2023-04-25T12:12:43;98372.50;;;24.16;35.09
79230;BME280;68663;49.122;17.544;2023-04-25T12:15:24;98368.88;;;24.15;35.18
79230;BME280;68663;49.122;17.544;2023-04-25T12:17:51;98368.19;;;24.24;35.71
79230;BME280;68663;49.122;17.544;2023-04-25T12:20:19;98369.72;;;24.29;35.92
79230;BME280;68663;49.122;17.544;2023-04-25T12:22:51;98372.06;;;24.30;36.43
79230;BME280;68663;49.122;17.544;2023-04-25T12:28:11;98368.63;;;24.48;36.71
79230;BME280;68663;49.122;17.544;2023-04-25T12:33:22;98373.28;;;24.42;37.50
79230;BME280;68663;49.122;17.544;2023-04-25T12:37:30;98352.72;;;24.41;37.78
79230;BME280;68663;49.122;17.544;2023-04-25T12:39:56;98355.53;;;24.41;38.08
79230;BME280;68663;49.122;17.544;2023-04-25T12:42:21;98360.69;;;24.56;37.87
79230;BME280;68663;49.122;17.544;2023-04-25T12:44:46;98357.63;;;24.63;37.88
79230;BME280;68663;49.122;17.544;2023-04-25T12:47:12;98347.94;;;24.51;38.23
79230;BME280;68663;49.122;17.544;2023-04-25T12:49:37;98352.34;;;24.52;38.39
79230;BME280;68663;49.122;17.544;2023-04-25T12:52:03;98346.25;;;24.54;38.55
79230;BME280;68663;49.122;17.544;2023-04-25T12:54:28;98348.72;;;24.52;38.63
79230;BME280;68663;49.122;17.544;2023-04-25T12:56:54;98359.13;;;24.55;38.61
79230;BME280;68663;49.122;17.544;2023-04-25T12:59:20;98354.47;;;24.61;38.50
79230;BME280;68663;49.122;17.544;2023-04-25T13:01:46;98349.53;;;24.52;38.83
79230;BME280;68663;49.122;17.544;2023-04-25T13:04:12;98351.34;;;24.46;38.92
79230;BME280;68663;49.122;17.544;2023-04-25T13:06:37;98358.38;;;24.41;39.21
79230;BME280;68663;49.122;17.544;2023-04-25T13:09:03;98372.25;;;24.49;39.20
79230;BME280;68663;49.122;17.544;2023-04-25T13:11:28;98361.16;;;24.54;39.16
79230;BME280;68663;49.122;17.544;2023-04-25T13:13:54;98366.09;;;24.63;39.04
79230;BME280;68663;49.122;17.544;2023-04-25T13:16:20;98361.63;;;24.74;38.64
79230;BME280;68663;49.122;17.544;2023-04-25T13:18:48;98359.81;;;24.81;38.68
79230;BME280;68663;49.122;17.544;2023-04-25T13:21:13;98358.09;;;24.83;38.66
79230;BME280;68663;49.122;17.544;2023-04-25T13:23:40;98359.28;;;24.73;38.86
79230;BME280;68663;49.122;17.544;2023-04-25T13:26:06;98361.09;;;24.67;39.00
79230;BME280;68663;49.122;17.544;2023-04-25T13:28:32;98364.66;;;24.58;39.23
79230;BME280;68663;49.122;17.544;2023-04-25T13:30:57;98371.34;;;24.52;39.50
79230;BME280;68663;49.122;17.544;2023-04-25T13:33:23;98367.38;;;24.49;39.86